createdAt,value
2022-10-15T00:04:24.132Z,10.07
2022-10-15T00:09:27.449Z,10.14
2022-10-15T00:14:30.553Z,10.24
2022-10-15T00:19:34.269Z,10.34
2022-10-15T00:24:37.887Z,10.49
2022-10-15T00:29:41.508Z,10.64
2022-10-15T00:34:44.611Z,10.73
2022-10-15T00:39:48.435Z,10.84
2022-10-15T00:44:54.715Z,10.91
2022-10-15T00:50:09.394Z,10.98
2022-10-15T00:55:29.086Z,11.04
2022-10-15T01:00:32.605Z,11.06
2022-10-15T01:05:36.426Z,11.04
2022-10-15T01:10:57.348Z,11.04
2022-10-15T01:21:56.093Z,11.02
2022-10-15T01:27:08.210Z,11.03
2022-10-15T01:32:27.085Z,10.98
2022-10-15T01:37:36.028Z,10.94
2022-10-15T01:42:59.613Z,10.85
2022-10-15T01:48:07.840Z,10.78
2022-10-15T01:53:14.324Z,10.78
2022-10-15T01:58:18.148Z,10.78
2022-10-15T02:03:21.359Z,10.80
2022-10-15T02:08:45.147Z,10.75
2022-10-15T02:13:48.252Z,10.68
2022-10-15T02:19:03.646Z,10.66
2022-10-15T02:24:10.342Z,10.64
2022-10-15T02:29:20.005Z,10.59
2022-10-15T02:34:28.189Z,10.55
2022-10-15T02:39:31.904Z,10.50
2022-10-15T02:44:35.259Z,10.46
2022-10-15T02:49:38.565Z,10.35
2022-10-15T02:54:41.670Z,10.26
2022-10-15T02:59:44.879Z,10.19
2022-10-15T03:04:47.987Z,10.11
2022-10-15T03:09:51.091Z,10.07
2022-10-15T03:14:54.560Z,10.06
2022-10-15T03:19:57.711Z,10.05
2022-10-15T03:25:00.817Z,9.97
2022-10-15T03:30:04.540Z,9.95
2022-10-15T03:35:08.361Z,9.98
2022-10-15T03:40:13.730Z,10.01
2022-10-15T03:45:21.024Z,10.03
2022-10-15T03:50:24.439Z,10.09
2022-10-15T03:55:27.646Z,10.11
2022-10-15T04:00:30.854Z,10.14
2022-10-15T04:05:34.062Z,10.18
2022-10-15T04:10:37.893Z,10.24
2022-10-15T04:15:40.993Z,10.29
2022-10-15T04:20:44.205Z,10.35
2022-10-15T04:25:47.409Z,10.39
2022-10-15T04:30:50.719Z,10.48
2022-10-15T04:36:08.511Z,10.55
2022-10-15T04:41:13.214Z,10.63
2022-10-15T04:46:16.629Z,10.67
2022-10-15T04:51:21.370Z,10.71
2022-10-15T04:56:25.295Z,10.76
2022-10-15T05:01:28.504Z,10.79
2022-10-15T05:06:34.081Z,10.84
2022-10-15T05:11:41.067Z,10.92
2022-10-15T05:16:44.277Z,10.94
2022-10-15T05:26:55.502Z,11.02
2022-10-15T05:31:58.611Z,11.00
2022-10-15T05:37:01.846Z,11.00
2022-10-15T05:42:05.025Z,11.05
2022-10-15T05:47:12.125Z,11.12
2022-10-15T05:52:16.167Z,11.23
2022-10-15T05:57:19.262Z,11.36
2022-10-15T06:02:22.925Z,11.54
2022-10-15T06:07:28.031Z,11.78
2022-10-15T06:12:31.240Z,11.94
2022-10-15T06:17:34.652Z,12.05
2022-10-15T06:27:45.984Z,12.29
2022-10-15T06:32:51.036Z,12.38
2022-10-15T06:37:57.107Z,12.45
2022-10-15T06:43:08.360Z,12.41
2022-10-15T06:48:11.821Z,12.39
2022-10-15T06:53:16.977Z,12.38
2022-10-15T06:58:20.184Z,12.40
2022-10-15T07:03:23.392Z,12.43
2022-10-15T07:08:26.706Z,12.53
2022-10-15T07:13:31.144Z,12.63
2022-10-15T07:18:35.682Z,12.69
2022-10-15T07:23:40.223Z,12.79
2022-10-15T07:28:43.653Z,12.88
2022-10-15T07:33:47.052Z,13.02
2022-10-15T07:38:50.256Z,13.14
2022-10-15T07:43:57.034Z,13.18
2022-10-15T07:49:00.465Z,13.24
2022-10-15T07:54:03.777Z,13.37
2022-10-15T07:59:09.033Z,13.54
2022-10-15T08:04:12.238Z,13.65
2022-10-15T08:09:15.826Z,13.83
2022-10-15T08:14:19.063Z,14.05
2022-10-15T08:19:22.377Z,14.34
2022-10-15T08:24:25.631Z,14.61
2022-10-15T08:29:28.823Z,14.82
2022-10-15T08:34:32.001Z,15.03
2022-10-15T08:39:35.924Z,15.14
2022-10-15T08:44:41.592Z,15.16
2022-10-15T08:49:47.500Z,15.26
2022-10-15T08:54:51.389Z,15.38
2022-10-15T09:00:05.042Z,15.57
2022-10-15T09:05:26.398Z,15.82
2022-10-15T09:10:43.610Z,16.15
2022-10-15T09:15:52.451Z,16.55
2022-10-15T09:20:57.134Z,16.84
2022-10-15T09:26:12.501Z,17.04
2022-10-15T09:31:20.070Z,17.20
2022-10-15T09:36:35.389Z,17.48
2022-10-15T09:41:51.910Z,17.83
2022-10-15T09:46:55.125Z,17.97
2022-10-15T09:52:16.555Z,18.09
2022-10-15T09:57:23.053Z,18.19
2022-10-15T10:02:27.667Z,18.19
2022-10-15T10:07:37.783Z,18.24
2022-10-15T10:12:44.236Z,18.29
2022-10-15T10:17:53.860Z,18.24
2022-10-15T10:23:21.374Z,18.12
2022-10-15T10:28:32.162Z,18.00
2022-10-15T10:33:49.133Z,18.01
2022-10-15T10:39:10.424Z,18.08
2022-10-15T10:44:36.982Z,18.24
2022-10-15T10:49:51.143Z,18.44
2022-10-15T10:55:01.928Z,18.67
2022-10-15T11:00:07.239Z,18.79
2022-10-15T11:05:12.535Z,18.91
2022-10-15T11:10:24.455Z,18.92
2022-10-15T11:15:31.559Z,18.70
2022-10-15T11:20:56.413Z,18.58
2022-10-15T11:26:24.051Z,18.61
2022-10-15T11:32:14.688Z,18.79
2022-10-15T11:37:58.533Z,19.23
2022-10-15T11:43:01.542Z,19.60
2022-10-15T11:48:39.768Z,19.86
2022-10-15T11:54:01.616Z,20.02
2022-10-15T11:59:18.038Z,19.98
2022-10-15T12:04:32.475Z,19.84
2022-10-15T12:09:40.646Z,19.61
2022-10-15T12:15:04.934Z,19.47
2022-10-15T12:20:15.817Z,19.44
2022-10-15T12:25:34.391Z,19.49
2022-10-15T12:30:38.114Z,19.65
2022-10-15T12:35:41.214Z,19.74
2022-10-15T12:40:45.548Z,19.85
2022-10-15T12:45:51.520Z,19.89
2022-10-15T12:51:17.486Z,19.94
2022-10-15T12:56:46.679Z,19.88
2022-10-15T13:01:52.359Z,19.75
2022-10-15T13:07:04.147Z,19.67
2022-10-15T13:12:23.747Z,19.52
2022-10-15T13:17:27.365Z,19.34
2022-10-15T13:22:33.259Z,19.14
2022-10-15T13:27:37.981Z,18.92
2022-10-15T13:32:48.290Z,18.77
2022-10-15T13:37:51.567Z,18.86
2022-10-15T13:43:01.945Z,19.14
2022-10-15T13:48:12.435Z,19.22
2022-10-15T13:53:50.966Z,19.14
2022-10-15T13:58:55.179Z,18.99
2022-10-15T14:04:00.770Z,18.76
2022-10-15T14:09:24.339Z,18.50
2022-10-15T14:14:29.495Z,18.31
2022-10-15T14:19:35.743Z,18.13
2022-10-15T14:24:40.519Z,18.05
2022-10-15T14:29:46.145Z,17.96
2022-10-15T14:34:51.955Z,17.86
2022-10-15T14:40:10.120Z,17.81
2022-10-15T14:45:16.291Z,17.71
2022-10-15T14:50:20.843Z,17.57
2022-10-15T14:55:24.446Z,17.43
2022-10-15T15:00:40.762Z,17.34
2022-10-15T15:05:49.615Z,17.23
2022-10-15T15:10:57.540Z,17.14
2022-10-15T15:16:03.087Z,17.05
2022-10-15T15:21:10.752Z,16.95
2022-10-15T15:26:13.907Z,16.88
2022-10-15T15:31:18.859Z,16.82
2022-10-15T15:36:23.789Z,16.79
2022-10-15T15:41:27.424Z,16.71
2022-10-15T15:46:30.628Z,16.65
2022-10-15T15:51:33.839Z,16.56
2022-10-15T15:56:37.918Z,16.50
2022-10-15T16:01:40.998Z,16.45
2022-10-15T16:06:44.589Z,16.38
2022-10-15T16:11:47.899Z,16.31
2022-10-15T16:16:51.209Z,16.25
2022-10-15T16:21:54.316Z,16.23
2022-10-15T16:26:57.524Z,16.21
2022-10-15T16:32:00.734Z,16.18
2022-10-15T16:37:04.760Z,16.17
2022-10-15T16:42:08.746Z,16.16
2022-10-15T16:47:12.305Z,16.12
2022-10-15T16:52:15.510Z,16.10
2022-10-15T16:57:18.719Z,16.08
2022-10-15T17:02:22.021Z,16.03
2022-10-15T17:07:25.527Z,15.98
2022-10-15T17:12:29.066Z,15.93
2022-10-15T17:17:32.373Z,15.89
2022-10-15T17:22:35.990Z,15.82
2022-10-15T17:27:39.204Z,15.81
2022-10-15T17:32:42.406Z,15.80
2022-10-15T17:37:46.756Z,15.78
2022-10-15T17:42:49.951Z,15.78
2022-10-15T17:47:53.264Z,15.79
2022-10-15T17:52:59.474Z,15.79
2022-10-15T17:58:03.056Z,15.79
2022-10-15T18:03:06.266Z,15.76
2022-10-15T18:08:10.293Z,15.73
2022-10-15T18:13:14.224Z,15.69
2022-10-15T18:18:19.289Z,15.68
2022-10-15T18:23:25.550Z,15.65
2022-10-15T18:28:28.922Z,15.61
2022-10-15T18:33:32.551Z,15.58
2022-10-15T18:38:36.508Z,15.57
2022-10-15T18:43:39.819Z,15.56
2022-10-15T18:48:44.256Z,15.55
2022-10-15T18:53:47.640Z,15.56
2022-10-15T18:58:56.117Z,15.56
2022-10-15T19:04:09.105Z,15.56
2022-10-15T19:09:19.149Z,15.56
2022-10-15T19:14:24.628Z,15.57
2022-10-15T19:19:29.105Z,15.56
2022-10-15T19:24:32.728Z,15.58
2022-10-15T19:29:38.696Z,15.59
2022-10-15T19:34:42.007Z,15.63
2022-10-15T19:39:48.595Z,15.65
2022-10-15T19:44:51.803Z,15.63
2022-10-15T19:49:55.831Z,15.62
2022-10-15T19:54:59.140Z,15.62
2022-10-15T20:00:07.737Z,15.60
2022-10-15T20:05:10.987Z,15.57
2022-10-15T20:10:15.912Z,15.57
2022-10-15T20:15:19.471Z,15.57
2022-10-15T20:20:22.658Z,15.55
2022-10-15T20:25:25.868Z,15.54
2022-10-15T20:30:29.792Z,15.52
2022-10-15T20:35:36.484Z,15.52
2022-10-15T20:40:41.570Z,15.52
2022-10-15T20:45:46.642Z,15.53
2022-10-15T20:50:51.621Z,15.54
2022-10-15T20:55:55.459Z,15.53
2022-10-15T21:00:59.865Z,15.51
2022-10-15T21:06:03.104Z,15.48
2022-10-15T21:11:08.058Z,15.45
2022-10-15T21:16:11.803Z,15.44
2022-10-15T21:21:15.393Z,15.39
2022-10-15T21:26:19.221Z,15.40
2022-10-15T21:31:23.050Z,15.39
2022-10-15T21:36:28.439Z,15.36
2022-10-15T21:41:34.368Z,15.34
2022-10-15T21:46:40.689Z,15.35
2022-10-15T21:51:43.860Z,15.34
2022-10-15T21:56:47.067Z,15.33
2022-10-15T22:01:50.325Z,15.32
2022-10-15T22:06:53.586Z,15.30
2022-10-15T22:11:56.692Z,15.30
2022-10-15T22:17:00.005Z,15.27
2022-10-15T22:22:03.214Z,15.27
2022-10-15T22:27:06.524Z,15.27
2022-10-15T22:32:09.730Z,15.27
2022-10-15T22:37:13.040Z,15.25
2022-10-15T22:42:16.557Z,15.25
2022-10-15T22:47:19.763Z,15.23
2022-10-15T22:52:23.284Z,15.20
2022-10-15T22:57:26.899Z,15.19
2022-10-15T23:02:30.110Z,15.17
2022-10-15T23:07:33.212Z,15.15
2022-10-15T23:12:38.145Z,15.11
2022-10-15T23:17:41.270Z,15.07
2022-10-15T23:22:44.476Z,15.02
2022-10-15T23:27:47.787Z,14.99
2022-10-15T23:32:51.101Z,14.97
2022-10-15T23:37:54.380Z,14.96
2022-10-15T23:42:57.620Z,14.93
2022-10-15T23:48:00.826Z,14.85
2022-10-15T23:53:04.142Z,14.82
2022-10-15T23:58:08.669Z,14.79
